イルクーツク の空港の天気 - METARとTAF

イルクーツク国際空港 ( UIII / IKT ) - ロシア イルクーツク
飛行場実況気象(Metar)
観測時間08/23 00:30 IRKT (08/22 16:30 UTC)
風向・風速東南東 2m/s
視程10km以上
天気現象
なし
気温13℃
湿度82%
気圧1013hPa
METARUIII 221630Z 11002MPS CAVOK 13/10 Q1013 R12/60D NOSIG RMK QFE717/0957
過去の天気等 Google飛行場航空写真 Wunderground天気予報

過去48時間のMETAR

飛行場予報(TAF)
発表時間: 8/22 22:00 IRKT (8/22 14:00 UTC)
予報対象時間: 22日23時 IRKT ~ 23日23時 IRKT
風向・風速南南東 3m/s
視程10km以上
なし
TAF UIII 221400Z 2215/2315 16003MPS CAVOK